Time;durP1;ratioP1;P1;durP2;ratioP2;P2;SDS_P1;SDS_P2;PMS_P1;PMS_P2;Temp;Humidity;BMP_temperature;BMP_pressure;BME280_temperature;BME280_humidity;BME280_pressure;Samples;Min_cycle;Max_cycle;Signal;HPM_P1;HPM_P2
2021/12/18 00:00:28;;;;;;;;;;;6.30;89.50;;;;;;5036432;28;19920;-80
2021/12/18 00:02:54;;;;;;;;;;;6.30;89.30;;;;;;5037628;28;20292;-80
2021/12/18 00:05:20;;;;;;;;;;;6.20;89.30;;;;;;5037140;28;20395;-80
2021/12/18 00:07:45;;;;;;;;;;;6.20;89.50;;;;;;5037667;28;19916;-80
2021/12/18 00:10:11;;;;;;;;;;;6.20;89.30;;;;;;5036471;28;19909;-80
2021/12/18 00:12:37;;;;;;;;;;;6.20;89.50;;;;;;5036330;28;19909;-80
2021/12/18 00:15:03;;;;;;;;;;;6.10;89.20;;;;;;5037353;28;19923;-79
2021/12/18 00:17:28;;;;;;;;;;;6.10;89.00;;;;;;5037117;28;19913;-79
2021/12/18 00:19:54;;;;;;;;;;;6.00;88.80;;;;;;5037594;28;19952;-79
2021/12/18 00:22:20;;;;;;;;;;;6.00;88.60;;;;;;5036861;28;19905;-80
2021/12/18 00:24:45;;;;;;;;;;;6.00;88.70;;;;;;5035812;28;19909;-80
2021/12/18 00:27:11;;;;;;;;;;;5.90;88.70;;;;;;5034025;28;19913;-80
2021/12/18 00:29:37;;;;;;;;;;;5.90;89.10;;;;;;5037194;28;19916;-79
2021/12/18 00:32:02;;;;;;;;;;;5.90;89.20;;;;;;5037057;28;19992;-79
2021/12/18 00:34:28;;;;;;;;;;;5.90;89.50;;;;;;5037328;28;19913;-79
2021/12/18 00:36:54;;;;;;;;;;;5.90;89.70;;;;;;5037007;28;19917;-79
2021/12/18 00:39:19;;;;;;;;;;;5.80;89.80;;;;;;5035430;28;19920;-79
2021/12/18 00:44:13;;;;;;;;;;;5.80;89.90;;;;;;5037204;28;19996;-80
2021/12/18 00:46:40;;;;;;;;;;;5.80;90.00;;;;;;5036921;28;19909;-80
2021/12/18 00:49:06;;;;;;;;;;;5.80;90.10;;;;;;5036832;28;20372;-80
2021/12/18 00:51:33;;;;;;;;;;;5.70;90.00;;;;;;5035914;28;19999;-80
2021/12/18 00:53:58;;;;;;;;;;;5.70;89.80;;;;;;5036820;28;21022;-80
2021/12/18 00:56:24;;;;;;;;;;;5.70;89.70;;;;;;5037274;28;19912;-80
2021/12/18 00:58:50;;;;;;;;;;;5.70;89.80;;;;;;5037064;28;19916;-79
2021/12/18 01:01:18;;;;;;;;;;;5.60;89.90;;;;;;5037076;28;19904;-79
2021/12/18 01:03:45;;;;;;;;;;;5.60;89.80;;;;;;5037161;28;19959;-79
2021/12/18 01:06:10;;;;;;;;;;;5.60;89.90;;;;;;5037328;28;20401;-79
2021/12/18 01:08:37;;;;;;;;;;;5.60;89.90;;;;;;5037234;28;20006;-79
2021/12/18 01:12:05;;;;;;;;;;;5.50;89.80;;;;;;5037207;28;19905;-79
2021/12/18 01:16:45;;;;;;;;;;;5.50;89.60;;;;;;5040723;28;19913;-79
2021/12/18 01:24:39;;;;;;;;;;;5.40;89.60;;;;;;5039981;28;19916;-80
2021/12/18 01:27:05;;;;;;;;;;;5.30;89.50;;;;;;5037378;28;19909;-80
2021/12/18 01:29:30;;;;;;;;;;;5.30;90.00;;;;;;5040677;28;19913;-79
2021/12/18 01:31:56;;;;;;;;;;;5.30;89.60;;;;;;5040201;28;20375;-79
2021/12/18 01:34:21;;;;;;;;;;;5.30;89.60;;;;;;5040554;28;19909;-79
2021/12/18 01:36:47;;;;;;;;;;;5.20;89.30;;;;;;5040624;28;19909;-79
2021/12/18 01:39:13;;;;;;;;;;;5.20;89.10;;;;;;5039913;28;19909;-79
2021/12/18 01:41:56;;;;;;;;;;;5.20;89.40;;;;;;5039751;28;19971;-79
2021/12/18 01:52:39;;;;;;;;;;;5.10;90.00;;;;;;5040001;28;19916;-79
2021/12/18 01:55:05;;;;;;;;;;;5.00;89.50;;;;;;5039607;28;19917;-79
2021/12/18 01:57:32;;;;;;;;;;;5.00;89.50;;;;;;5040068;28;20357;-79
2021/12/18 01:59:58;;;;;;;;;;;5.00;89.50;;;;;;5039852;28;19956;-79
2021/12/18 02:02:24;;;;;;;;;;;5.00;89.90;;;;;;5038444;28;19909;-79
2021/12/18 02:04:50;;;;;;;;;;;4.90;90.00;;;;;;5035760;28;19913;-79
2021/12/18 02:07:16;;;;;;;;;;;4.90;90.00;;;;;;5039688;28;19916;-79
2021/12/18 02:12:24;;;;;;;;;;;4.90;90.30;;;;;;5039808;28;19956;-80
2021/12/18 02:23:02;;;;;;;;;;;4.90;90.00;;;;;;5029806;28;20392;-79
2021/12/18 02:25:31;;;;;;;;;;;4.80;90.10;;;;;;5036452;28;20011;-79
2021/12/18 02:27:56;;;;;;;;;;;4.80;90.10;;;;;;5028809;28;19912;-79
2021/12/18 02:30:22;;;;;;;;;;;4.80;90.20;;;;;;5039212;28;20420;-79
2021/12/18 02:32:49;;;;;;;;;;;4.80;90.30;;;;;;5039490;28;19966;-79
2021/12/18 02:35:28;;;;;;;;;;;4.80;90.40;;;;;;5039094;28;19913;-79
2021/12/18 02:38:12;;;;;;;;;;;4.70;90.40;;;;;;5039090;28;19916;-79
2021/12/18 02:43:30;;;;;;;;;;;4.70;90.50;;;;;;5039574;28;19911;-79
2021/12/18 02:45:59;;;;;;;;;;;4.70;90.60;;;;;;5037391;28;20434;-79
2021/12/18 02:48:28;;;;;;;;;;;4.70;90.60;;;;;;5034059;28;19952;-79
2021/12/18 02:50:54;;;;;;;;;;;4.70;90.60;;;;;;5038249;28;19940;-79
2021/12/18 02:53:20;;;;;;;;;;;4.70;90.70;;;;;;5039056;28;19905;-79
2021/12/18 02:55:52;;;;;;;;;;;4.70;90.60;;;;;;5038801;28;20004;-79
2021/12/18 02:58:18;;;;;;;;;;;4.60;90.60;;;;;;5038829;28;19916;-79
2021/12/18 03:00:43;;;;;;;;;;;4.60;90.80;;;;;;5038757;28;19909;-79
2021/12/18 03:03:10;;;;;;;;;;;4.60;90.90;;;;;;5038429;28;19948;-79
2021/12/18 03:05:44;;;;;;;;;;;4.60;90.80;;;;;;5038678;28;19913;-79
2021/12/18 03:08:16;;;;;;;;;;;4.60;90.90;;;;;;5026127;28;19952;-79
2021/12/18 03:24:21;;;;;;;;;;;4.50;91.60;;;;;;5038160;28;20375;-79
2021/12/18 03:26:47;;;;;;;;;;;4.50;91.40;;;;;;5026434;28;19959;-79
2021/12/18 03:29:12;;;;;;;;;;;4.50;91.60;;;;;;5037899;28;19908;-79
2021/12/18 03:31:38;;;;;;;;;;;4.50;91.60;;;;;;5036506;28;20296;-79
2021/12/18 03:34:04;;;;;;;;;;;4.50;91.50;;;;;;5037845;28;20334;-79
2021/12/18 03:36:29;;;;;;;;;;;4.50;91.40;;;;;;5038067;28;19997;-79
2021/12/18 03:38:55;;;;;;;;;;;4.50;91.40;;;;;;5037762;28;20296;-79
2021/12/18 03:41:21;;;;;;;;;;;4.40;91.30;;;;;;5037637;28;19920;-79
2021/12/18 03:43:47;;;;;;;;;;;4.40;91.30;;;;;;5037534;28;20269;-79
2021/12/18 03:46:12;;;;;;;;;;;4.40;91.30;;;;;;5037845;28;19912;-79
2021/12/18 03:48:38;;;;;;;;;;;4.40;91.10;;;;;;5026508;28;20380;-79
2021/12/18 03:51:04;;;;;;;;;;;4.40;91.00;;;;;;5036469;28;19905;-79
2021/12/18 03:53:29;;;;;;;;;;;4.30;91.20;;;;;;5037628;28;19909;-79
2021/12/18 03:55:55;;;;;;;;;;;4.30;91.20;;;;;;5037819;28;19916;-79
2021/12/18 03:58:21;;;;;;;;;;;4.30;91.20;;;;;;5037794;28;19909;-79
2021/12/18 04:00:46;;;;;;;;;;;4.30;91.20;;;;;;5036143;28;20418;-79
2021/12/18 04:03:12;;;;;;;;;;;4.30;91.20;;;;;;5037459;28;20438;-79
2021/12/18 04:05:38;;;;;;;;;;;4.20;91.20;;;;;;5037724;28;20380;-79
2021/12/18 04:08:10;;;;;;;;;;;4.20;91.20;;;;;;5036241;28;19916;-79
2021/12/18 04:10:37;;;;;;;;;;;4.20;91.40;;;;;;5036632;28;19913;-79
2021/12/18 04:13:03;;;;;;;;;;;4.20;91.40;;;;;;5037879;28;19905;-79
2021/12/18 04:15:28;;;;;;;;;;;4.20;91.20;;;;;;5037399;28;19951;-79
2021/12/18 04:17:54;;;;;;;;;;;4.20;91.10;;;;;;5037230;28;20043;-79
2021/12/18 04:20:20;;;;;;;;;;;4.10;90.90;;;;;;5037271;28;19948;-79
2021/12/18 04:22:45;;;;;;;;;;;4.10;90.90;;;;;;5037801;28;19983;-79
2021/12/18 04:25:11;;;;;;;;;;;4.10;90.80;;;;;;5037086;28;19905;-79
2021/12/18 04:27:36;;;;;;;;;;;4.00;90.70;;;;;;5034100;28;19909;-79
2021/12/18 04:30:02;;;;;;;;;;;4.00;90.60;;;;;;5035954;28;19905;-79
2021/12/18 04:32:28;;;;;;;;;;;4.00;90.60;;;;;;5037284;28;20290;-79
2021/12/18 04:34:54;;;;;;;;;;;3.90;90.50;;;;;;5037236;28;19909;-79
2021/12/18 04:37:20;;;;;;;;;;;3.90;90.50;;;;;;5037154;28;19976;-79
2021/12/18 04:39:46;;;;;;;;;;;3.80;90.40;;;;;;5036895;28;19912;-79
2021/12/18 04:42:12;;;;;;;;;;;3.80;90.40;;;;;;5037836;28;19931;-79
2021/12/18 04:44:37;;;;;;;;;;;3.80;90.30;;;;;;5037391;28;19909;-79
2021/12/18 04:47:03;;;;;;;;;;;3.70;90.30;;;;;;5034561;28;19905;-79
2021/12/18 04:49:29;;;;;;;;;;;3.70;90.20;;;;;;5035455;28;20268;-79
2021/12/18 04:51:55;;;;;;;;;;;3.60;90.20;;;;;;5041841;28;19912;-79
2021/12/18 04:54:20;;;;;;;;;;;3.60;90.20;;;;;;5040986;28;20283;-79
2021/12/18 04:56:46;;;;;;;;;;;3.60;90.20;;;;;;5041430;28;19951;-79
2021/12/18 04:59:12;;;;;;;;;;;3.50;90.10;;;;;;5040880;28;20007;-79
2021/12/18 05:01:39;;;;;;;;;;;3.50;90.10;;;;;;5041107;28;19927;-79
2021/12/18 05:04:09;;;;;;;;;;;3.40;90.10;;;;;;5040761;28;19905;-79
2021/12/18 05:06:36;;;;;;;;;;;3.40;90.10;;;;;;5041391;28;19905;-79
2021/12/18 05:09:02;;;;;;;;;;;3.40;90.10;;;;;;5040437;28;19909;-79
2021/12/18 05:11:28;;;;;;;;;;;3.30;90.00;;;;;;5039746;28;19924;-79
2021/12/18 05:13:54;;;;;;;;;;;3.30;90.00;;;;;;5040798;28;19909;-79
2021/12/18 05:16:19;;;;;;;;;;;3.30;90.00;;;;;;5040509;28;19913;-79
2021/12/18 05:18:45;;;;;;;;;;;3.20;90.00;;;;;;5040538;28;19909;-79
2021/12/18 05:21:11;;;;;;;;;;;3.20;90.00;;;;;;5040534;28;20363;-79
2021/12/18 05:23:36;;;;;;;;;;;3.20;90.00;;;;;;5040553;28;19905;-79
2021/12/18 05:26:02;;;;;;;;;;;3.10;89.90;;;;;;5040251;28;19909;-79
2021/12/18 05:28:28;;;;;;;;;;;3.10;89.90;;;;;;5040285;28;20288;-79
2021/12/18 05:30:53;;;;;;;;;;;3.00;89.80;;;;;;5040260;28;19909;-79
2021/12/18 05:33:19;;;;;;;;;;;3.00;89.80;;;;;;5040369;28;19909;-79
2021/12/18 05:35:45;;;;;;;;;;;3.00;89.70;;;;;;5039867;28;19913;-79
2021/12/18 05:38:11;;;;;;;;;;;2.90;89.60;;;;;;5040177;28;19909;-79
2021/12/18 05:40:37;;;;;;;;;;;2.90;89.60;;;;;;5038478;28;20371;-79
2021/12/18 05:43:04;;;;;;;;;;;2.90;89.80;;;;;;5037313;28;19908;-79
2021/12/18 05:45:29;;;;;;;;;;;2.90;89.80;;;;;;5039022;28;19944;-79
2021/12/18 05:47:56;;;;;;;;;;;2.80;89.70;;;;;;5035237;28;19912;-79
2021/12/18 05:50:21;;;;;;;;;;;2.90;89.80;;;;;;5040324;28;19905;-79
2021/12/18 05:52:48;;;;;;;;;;;2.90;89.70;;;;;;5040517;28;19912;-79
2021/12/18 05:55:15;;;;;;;;;;;2.90;90.00;;;;;;5039347;28;19913;-79
2021/12/18 05:57:41;;;;;;;;;;;2.90;90.40;;;;;;5037947;28;19945;-78
2021/12/18 06:00:08;;;;;;;;;;;2.90;90.50;;;;;;5038475;28;19909;-78
2021/12/18 06:02:34;;;;;;;;;;;2.90;90.40;;;;;;5035093;28;20023;-79
2021/12/18 06:04:59;;;;;;;;;;;2.90;90.30;;;;;;5037676;28;19952;-79
2021/12/18 06:07:30;;;;;;;;;;;2.90;90.30;;;;;;5038453;28;19913;-79
2021/12/18 06:09:56;;;;;;;;;;;2.80;90.30;;;;;;5035104;28;19913;-79
2021/12/18 06:12:22;;;;;;;;;;;2.80;90.20;;;;;;5037576;28;19909;-79
2021/12/18 06:14:48;;;;;;;;;;;2.80;90.10;;;;;;5038213;28;20060;-78
2021/12/18 06:17:14;;;;;;;;;;;2.70;90.10;;;;;;5038477;28;19954;-78
2021/12/18 06:19:39;;;;;;;;;;;2.70;90.10;;;;;;5037980;28;19909;-78
2021/12/18 06:22:05;;;;;;;;;;;2.70;90.00;;;;;;5038576;28;20773;-78
2021/12/18 06:24:31;;;;;;;;;;;2.70;90.00;;;;;;5037988;28;19916;-78
2021/12/18 06:26:56;;;;;;;;;;;2.60;90.00;;;;;;5037576;28;19920;-78
2021/12/18 06:29:22;;;;;;;;;;;2.60;90.00;;;;;;5036204;28;20396;-78
2021/12/18 06:31:48;;;;;;;;;;;2.60;90.10;;;;;;5038141;28;19909;-78
2021/12/18 06:34:14;;;;;;;;;;;2.60;90.10;;;;;;5037753;28;19913;-78
2021/12/18 06:36:40;;;;;;;;;;;2.60;90.10;;;;;;5037394;28;20367;-78
2021/12/18 06:39:05;;;;;;;;;;;2.50;90.10;;;;;;5037370;28;19920;-78
2021/12/18 06:41:31;;;;;;;;;;;2.60;90.10;;;;;;5037990;28;19928;-78
2021/12/18 06:43:57;;;;;;;;;;;2.50;90.00;;;;;;5048161;28;19909;-78
2021/12/18 06:46:22;;;;;;;;;;;2.50;90.00;;;;;;5043219;28;19955;-78
2021/12/18 06:48:48;;;;;;;;;;;2.50;89.90;;;;;;5038858;28;20008;-78
2021/12/18 06:51:17;;;;;;;;;;;2.50;89.90;;;;;;5038054;28;20352;-78
2021/12/18 06:53:43;;;;;;;;;;;2.40;89.80;;;;;;5048364;28;19952;-78
2021/12/18 06:56:09;;;;;;;;;;;2.40;90.00;;;;;;5054438;28;19942;-78
2021/12/18 06:58:34;;;;;;;;;;;2.40;90.00;;;;;;5043718;28;19909;-78
2021/12/18 07:01:00;;;;;;;;;;;2.40;90.00;;;;;;5043573;28;19962;-78
2021/12/18 07:03:26;;;;;;;;;;;2.40;90.00;;;;;;5037504;28;19908;-78
2021/12/18 07:05:51;;;;;;;;;;;2.30;89.80;;;;;;5038106;28;19909;-78
2021/12/18 07:08:17;;;;;;;;;;;2.30;89.80;;;;;;5050295;28;19905;-78
2021/12/18 07:10:43;;;;;;;;;;;2.30;89.80;;;;;;5039725;28;19994;-78
2021/12/18 07:13:09;;;;;;;;;;;2.30;89.80;;;;;;5054456;28;20006;-78
2021/12/18 07:15:35;;;;;;;;;;;2.30;89.90;;;;;;5037781;28;19913;-78
2021/12/18 07:18:01;;;;;;;;;;;2.20;89.80;;;;;;5036942;28;19909;-78
2021/12/18 07:20:27;;;;;;;;;;;2.20;89.90;;;;;;5037274;28;20008;-78
2021/12/18 07:22:53;;;;;;;;;;;2.20;89.90;;;;;;5038928;28;19909;-78
2021/12/18 07:25:19;;;;;;;;;;;2.20;89.80;;;;;;5046299;28;19913;-78
2021/12/18 07:27:45;;;;;;;;;;;2.10;89.80;;;;;;5044905;28;19916;-78
2021/12/18 07:30:11;;;;;;;;;;;2.10;89.70;;;;;;5037477;28;19916;-78
2021/12/18 07:32:38;;;;;;;;;;;2.10;89.70;;;;;;5036489;28;19909;-78
2021/12/18 07:35:04;;;;;;;;;;;2.00;89.60;;;;;;5038458;28;20272;-78
2021/12/18 07:37:30;;;;;;;;;;;2.00;89.60;;;;;;5039893;28;19909;-78
2021/12/18 07:39:55;;;;;;;;;;;2.00;89.60;;;;;;5037372;28;19974;-78
2021/12/18 07:42:21;;;;;;;;;;;2.00;89.70;;;;;;5046952;28;20371;-78
2021/12/18 07:44:47;;;;;;;;;;;2.00;89.80;;;;;;5047304;28;19959;-78
2021/12/18 07:47:12;;;;;;;;;;;1.90;90.00;;;;;;5056415;28;20336;-78
2021/12/18 07:49:39;;;;;;;;;;;1.90;90.00;;;;;;5047655;28;19909;-78
2021/12/18 07:52:05;;;;;;;;;;;1.90;90.00;;;;;;5037870;28;19976;-78
2021/12/18 07:54:30;;;;;;;;;;;1.90;90.00;;;;;;5040936;28;20387;-78
2021/12/18 07:56:56;;;;;;;;;;;1.90;90.00;;;;;;5041547;28;19912;-78
2021/12/18 07:59:22;;;;;;;;;;;1.90;90.00;;;;;;5037740;28;19909;-78
2021/12/18 08:01:47;;;;;;;;;;;1.90;90.00;;;;;;5038692;28;19916;-78
2021/12/18 08:04:13;;;;;;;;;;;1.80;90.00;;;;;;5042845;28;20395;-78
2021/12/18 08:06:39;;;;;;;;;;;1.80;90.10;;;;;;5049452;28;20011;-78
2021/12/18 08:09:04;;;;;;;;;;;1.80;90.10;;;;;;5036464;28;20002;-78
2021/12/18 08:11:30;;;;;;;;;;;1.80;90.10;;;;;;5037644;28;19909;-78
2021/12/18 08:13:56;;;;;;;;;;;1.80;90.10;;;;;;5037571;28;19912;-78
2021/12/18 08:16:21;;;;;;;;;;;1.80;90.10;;;;;;5037655;28;19913;-78
2021/12/18 08:18:47;;;;;;;;;;;1.80;90.10;;;;;;5039606;28;20075;-78
2021/12/18 08:21:13;;;;;;;;;;;1.80;90.10;;;;;;5036611;28;19909;-78
2021/12/18 08:23:39;;;;;;;;;;;1.80;90.10;;;;;;5036966;28;20429;-79
2021/12/18 08:26:05;;;;;;;;;;;1.80;90.10;;;;;;5044721;28;19909;-78
2021/12/18 08:28:30;;;;;;;;;;;1.80;90.20;;;;;;5037779;28;20435;-78
2021/12/18 08:30:56;;;;;;;;;;;1.80;90.20;;;;;;5037639;28;19996;-79
2021/12/18 08:33:21;;;;;;;;;;;1.80;90.20;;;;;;5036022;28;19905;-78
2021/12/18 08:35:47;;;;;;;;;;;1.80;90.20;;;;;;5036142;28;20346;-78
2021/12/18 08:38:13;;;;;;;;;;;1.80;90.20;;;;;;5042007;28;20394;-78
2021/12/18 08:40:38;;;;;;;;;;;1.80;90.20;;;;;;5041870;28;19921;-78
2021/12/18 08:43:04;;;;;;;;;;;1.80;90.20;;;;;;5036356;28;20011;-78
2021/12/18 08:45:30;;;;;;;;;;;1.90;90.20;;;;;;5037123;28;19909;-78
2021/12/18 08:47:56;;;;;;;;;;;1.90;90.20;;;;;;5032800;28;19916;-78
2021/12/18 08:50:22;;;;;;;;;;;1.90;90.30;;;;;;5037243;28;19916;-78
2021/12/18 08:52:49;;;;;;;;;;;1.90;90.30;;;;;;5038825;28;20311;-78
2021/12/18 08:55:15;;;;;;;;;;;2.00;90.40;;;;;;5036354;28;19913;-78
2021/12/18 08:57:41;;;;;;;;;;;2.00;90.30;;;;;;5037029;28;19959;-78
2021/12/18 09:00:09;;;;;;;;;;;2.00;90.40;;;;;;5035763;28;19909;-78
2021/12/18 09:02:35;;;;;;;;;;;2.10;90.40;;;;;;5036081;28;19944;-78
2021/12/18 09:05:02;;;;;;;;;;;2.10;90.40;;;;;;5037237;28;19955;-78
2021/12/18 09:07:27;;;;;;;;;;;2.20;90.40;;;;;;5048641;28;19940;-78
2021/12/18 09:09:53;;;;;;;;;;;2.20;90.40;;;;;;5039757;28;19909;-78
2021/12/18 09:12:18;;;;;;;;;;;2.20;90.40;;;;;;5035572;28;19913;-78
2021/12/18 09:14:44;;;;;;;;;;;2.30;90.50;;;;;;5048844;28;19955;-74
2021/12/18 09:17:10;;;;;;;;;;;2.30;90.40;;;;;;5035788;28;19920;-77
2021/12/18 09:19:36;;;;;;;;;;;2.40;90.50;;;;;;5039480;28;20038;-81
2021/12/18 09:22:03;;;;;;;;;;;2.50;90.60;;;;;;5034988;28;19909;-78
2021/12/18 09:24:29;;;;;;;;;;;2.50;90.60;;;;;;5036526;28;19909;-77
2021/12/18 09:26:55;;;;;;;;;;;2.60;90.60;;;;;;5038170;28;20411;-76
2021/12/18 09:29:20;;;;;;;;;;;2.70;90.70;;;;;;5035837;28;19909;-75
2021/12/18 09:31:46;;;;;;;;;;;2.80;90.90;;;;;;5043143;28;20419;-75
2021/12/18 09:34:12;;;;;;;;;;;2.90;91.10;;;;;;5042953;28;20279;-75
2021/12/18 09:36:37;;;;;;;;;;;3.10;91.50;;;;;;5036500;28;19920;-75
2021/12/18 09:39:04;;;;;;;;;;;3.40;91.80;;;;;;5044063;28;19909;-75
2021/12/18 09:41:29;;;;;;;;;;;3.60;91.90;;;;;;5043000;28;20387;-75
2021/12/18 09:43:55;;;;;;;;;;;3.90;91.80;;;;;;5039045;28;19963;-75
2021/12/18 09:46:20;;;;;;;;;;;4.10;91.70;;;;;;5039008;28;20425;-75
2021/12/18 09:48:46;;;;;;;;;;;4.30;92.10;;;;;;5038528;28;19909;-76
2021/12/18 09:51:21;;;;;;;;;;;4.60;92.10;;;;;;5038462;28;19916;-75
2021/12/18 09:53:47;;;;;;;;;;;5.00;92.10;;;;;;5029299;28;19909;-76
2021/12/18 09:56:13;;;;;;;;;;;5.20;91.70;;;;;;5037390;28;19913;-76
2021/12/18 09:58:38;;;;;;;;;;;5.50;91.50;;;;;;5038737;28;19909;-75
2021/12/18 10:01:04;;;;;;;;;;;5.60;91.40;;;;;;5036163;28;19909;-75
2021/12/18 10:03:44;;;;;;;;;;;5.70;91.40;;;;;;5040001;28;19916;-76
2021/12/18 10:06:29;;;;;;;;;;;5.90;91.60;;;;;;5038089;28;19913;-76
2021/12/18 10:08:55;;;;;;;;;;;6.20;91.90;;;;;;5039300;28;20288;-76
2021/12/18 10:11:20;;;;;;;;;;;6.50;91.90;;;;;;5033280;28;19909;-76
2021/12/18 10:13:50;;;;;;;;;;;6.70;92.00;;;;;;5039991;28;19955;-76
2021/12/18 10:16:16;;;;;;;;;;;7.00;92.20;;;;;;5039279;28;20015;-76
2021/12/18 10:18:42;;;;;;;;;;;7.50;92.50;;;;;;5039236;28;19956;-76
2021/12/18 10:21:09;;;;;;;;;;;8.00;92.60;;;;;;5039481;28;19989;-76
2021/12/18 10:23:34;;;;;;;;;;;8.40;92.40;;;;;;5039774;28;20356;-76
2021/12/18 10:26:00;;;;;;;;;;;8.90;92.10;;;;;;5033312;28;19932;-76
2021/12/18 10:28:41;;;;;;;;;;;9.40;91.90;;;;;;5038662;28;19967;-76
2021/12/18 10:31:06;;;;;;;;;;;9.80;91.80;;;;;;5036212;28;19932;-76
2021/12/18 10:33:35;;;;;;;;;;;10.40;91.40;;;;;;5038960;28;19917;-76
2021/12/18 10:36:01;;;;;;;;;;;10.80;91.00;;;;;;5039088;28;20275;-76
2021/12/18 10:38:47;;;;;;;;;;;11.10;90.40;;;;;;5038341;28;19909;-76
2021/12/18 10:41:20;;;;;;;;;;;11.50;89.90;;;;;;5037516;28;21591;-76
2021/12/18 10:43:56;;;;;;;;;;;11.90;88.90;;;;;;5036564;28;20387;-77
2021/12/18 10:46:22;;;;;;;;;;;12.30;88.00;;;;;;5037829;28;19909;-77
2021/12/18 10:48:55;;;;;;;;;;;12.70;87.30;;;;;;5038526;28;20279;-77
2021/12/18 10:51:22;;;;;;;;;;;13.00;86.50;;;;;;5038364;28;19955;-77
2021/12/18 10:53:48;;;;;;;;;;;13.40;85.10;;;;;;5038344;28;19959;-77
2021/12/18 10:56:14;;;;;;;;;;;13.60;84.00;;;;;;5037050;28;19921;-77
2021/12/18 10:58:39;;;;;;;;;;;13.90;82.90;;;;;;5038129;28;19915;-77
2021/12/18 11:01:15;;;;;;;;;;;14.20;82.20;;;;;;5038471;28;19952;-77
2021/12/18 11:03:45;;;;;;;;;;;14.50;81.30;;;;;;5038254;28;19909;-76
2021/12/18 11:06:12;;;;;;;;;;;14.70;80.20;;;;;;5037125;28;19916;-77
2021/12/18 11:09:00;;;;;;;;;;;14.90;78.80;;;;;;5037588;28;19908;-77
2021/12/18 11:14:05;;;;;;;;;;;15.30;78.30;;;;;;5037753;28;19931;-78
2021/12/18 11:16:35;;;;;;;;;;;15.60;77.80;;;;;;5036682;28;19987;-78
2021/12/18 11:19:03;;;;;;;;;;;15.80;76.10;;;;;;5037312;28;19924;-77
2021/12/18 11:21:30;;;;;;;;;;;15.90;74.90;;;;;;5037866;28;19908;-77
2021/12/18 11:24:01;;;;;;;;;;;16.10;74.10;;;;;;5037738;28;19916;-77
2021/12/18 11:26:30;;;;;;;;;;;16.20;72.30;;;;;;5034131;28;19916;-76
2021/12/18 11:28:57;;;;;;;;;;;16.20;71.70;;;;;;5037860;28;19909;-76
2021/12/18 11:31:26;;;;;;;;;;;16.20;71.10;;;;;;5037176;28;19909;-77
2021/12/18 11:33:51;;;;;;;;;;;16.30;69.70;;;;;;5035034;28;19955;-78
2021/12/18 11:36:17;;;;;;;;;;;16.40;70.20;;;;;;5036461;28;19925;-77
2021/12/18 11:38:44;;;;;;;;;;;16.50;71.50;;;;;;5037354;28;19924;-77
2021/12/18 11:41:18;;;;;;;;;;;16.70;69.90;;;;;;5037990;28;20415;-76
2021/12/18 11:43:46;;;;;;;;;;;16.80;67.00;;;;;;5038105;28;20364;-76
2021/12/18 11:46:27;;;;;;;;;;;16.90;67.20;;;;;;5038065;28;19948;-76
2021/12/18 11:48:53;;;;;;;;;;;16.90;67.30;;;;;;5032189;28;19905;-76
2021/12/18 11:51:19;;;;;;;;;;;17.10;67.90;;;;;;5038487;28;20006;-76
2021/12/18 11:53:44;;;;;;;;;;;17.20;66.70;;;;;;5035190;28;19909;-84
2021/12/18 11:56:10;;;;;;;;;;;17.30;64.90;;;;;;5034796;28;19913;-77
2021/12/18 11:58:41;;;;;;;;;;;17.40;66.40;;;;;;5038243;28;19947;-78
2021/12/18 12:01:15;;;;;;;;;;;17.40;66.40;;;;;;5035881;28;19916;-77
2021/12/18 12:03:43;;;;;;;;;;;17.60;66.00;;;;;;5036535;28;19913;-82
2021/12/18 12:06:21;;;;;;;;;;;17.60;65.40;;;;;;5036023;28;19939;-78
2021/12/18 12:08:50;;;;;;;;;;;17.80;65.10;;;;;;5036649;28;19991;-79
2021/12/18 12:11:26;;;;;;;;;;;17.80;63.60;;;;;;5036350;28;19909;-80
2021/12/18 12:13:58;;;;;;;;;;;17.80;62.40;;;;;;5035752;28;19908;-81
2021/12/18 12:16:56;;;;;;;;;;;17.80;63.10;;;;;;5034162;28;20315;-79
2021/12/18 12:19:24;;;;;;;;;;;17.90;63.80;;;;;;5036762;28;19905;-77
2021/12/18 12:21:57;;;;;;;;;;;17.90;63.60;;;;;;5034082;28;19909;-79
2021/12/18 12:24:27;;;;;;;;;;;18.00;64.00;;;;;;5026588;28;19944;-79
2021/12/18 12:26:54;;;;;;;;;;;18.00;62.90;;;;;;5044837;28;19917;-78
2021/12/18 12:29:20;;;;;;;;;;;18.10;62.20;;;;;;5034735;28;20007;-80
2021/12/18 12:31:52;;;;;;;;;;;18.00;60.50;;;;;;5034877;28;19963;-82
2021/12/18 12:34:24;;;;;;;;;;;18.00;61.90;;;;;;5036259;28;20380;-79
2021/12/18 12:36:50;;;;;;;;;;;18.00;62.20;;;;;;5025382;28;20335;-79
2021/12/18 12:39:16;;;;;;;;;;;18.00;62.80;;;;;;5036945;28;19917;-80
2021/12/18 12:41:52;;;;;;;;;;;18.00;61.50;;;;;;5036373;28;19923;-85
2021/12/18 12:44:34;;;;;;;;;;;17.90;62.50;;;;;;5037407;28;19905;-85
2021/12/18 12:47:15;;;;;;;;;;;17.90;63.60;;;;;;5036283;28;20298;-84
2021/12/18 12:49:41;;;;;;;;;;;17.90;62.90;;;;;;5033006;28;19912;-84
2021/12/18 12:52:09;;;;;;;;;;;17.80;61.30;;;;;;5035598;28;19916;-84
2021/12/18 12:54:38;;;;;;;;;;;17.70;61.90;;;;;;5030439;28;19913;-85
2021/12/18 12:57:22;;;;;;;;;;;17.70;61.50;;;;;;5032149;28;19943;-84
2021/12/18 12:59:48;;;;;;;;;;;17.70;62.30;;;;;;5035991;28;19913;-83
2021/12/18 13:02:14;;;;;;;;;;;17.60;62.00;;;;;;5035544;28;19928;-78
2021/12/18 13:04:40;;;;;;;;;;;17.50;61.00;;;;;;5035373;28;19911;-79
2021/12/18 13:07:06;;;;;;;;;;;17.50;61.80;;;;;;5036412;28;19909;-79
2021/12/18 13:09:35;;;;;;;;;;;17.40;62.40;;;;;;5039409;28;20327;-80
2021/12/18 13:12:02;;;;;;;;;;;17.40;62.30;;;;;;5036285;28;19915;-80
2021/12/18 13:14:35;;;;;;;;;;;17.30;61.40;;;;;;5040349;28;19917;-80
2021/12/18 13:17:00;;;;;;;;;;;17.20;61.30;;;;;;5040056;28;19913;-80
2021/12/18 13:19:26;;;;;;;;;;;17.10;61.90;;;;;;5038640;28;19931;-80
2021/12/18 13:21:52;;;;;;;;;;;17.00;62.60;;;;;;5040481;28;19955;-80
2021/12/18 13:24:17;;;;;;;;;;;16.90;61.90;;;;;;5040448;28;20407;-79
2021/12/18 13:26:44;;;;;;;;;;;16.80;61.50;;;;;;5034345;28;19909;-79
2021/12/18 13:29:16;;;;;;;;;;;16.70;61.40;;;;;;5039528;28;19909;-79
2021/12/18 13:31:49;;;;;;;;;;;16.60;62.30;;;;;;5038494;28;19909;-79
2021/12/18 13:34:19;;;;;;;;;;;16.50;63.00;;;;;;5038902;28;19909;-79
2021/12/18 13:36:47;;;;;;;;;;;16.50;62.50;;;;;;5037216;28;20012;-79
2021/12/18 13:39:14;;;;;;;;;;;16.40;62.80;;;;;;5037933;28;19909;-79
2021/12/18 13:41:54;;;;;;;;;;;16.40;63.40;;;;;;5039021;28;20402;-80
2021/12/18 13:44:20;;;;;;;;;;;16.30;63.90;;;;;;5039688;28;19948;-80
2021/12/18 13:46:45;;;;;;;;;;;16.30;63.00;;;;;;5037550;28;19916;-80
2021/12/18 13:49:11;;;;;;;;;;;16.30;63.00;;;;;;5040037;28;19909;-79
2021/12/18 13:51:36;;;;;;;;;;;16.20;63.90;;;;;;5040478;28;19905;-80
2021/12/18 13:54:04;;;;;;;;;;;16.00;62.50;;;;;;5037894;28;19915;-79
2021/12/18 13:56:31;;;;;;;;;;;15.90;63.90;;;;;;5036970;28;19951;-80
2021/12/18 13:58:57;;;;;;;;;;;15.60;62.60;;;;;;5038813;28;19916;-80
2021/12/18 14:01:24;;;;;;;;;;;15.40;62.70;;;;;;5037215;28;19909;-78
2021/12/18 14:03:58;;;;;;;;;;;15.10;62.60;;;;;;5030406;28;19910;-79
2021/12/18 14:06:33;;;;;;;;;;;14.90;64.10;;;;;;5027188;28;20015;-78
2021/12/18 14:08:59;;;;;;;;;;;14.70;64.00;;;;;;5039198;28;19917;-78
2021/12/18 14:11:27;;;;;;;;;;;14.50;65.00;;;;;;5038107;28;19970;-79
2021/12/18 14:14:01;;;;;;;;;;;14.30;64.40;;;;;;5039743;28;19905;-78
2021/12/18 14:16:26;;;;;;;;;;;14.10;65.10;;;;;;5037664;28;19909;-78
2021/12/18 14:18:57;;;;;;;;;;;13.90;64.40;;;;;;5035748;28;20322;-78
2021/12/18 14:21:34;;;;;;;;;;;13.70;65.80;;;;;;5027921;28;19905;-79
2021/12/18 14:24:00;;;;;;;;;;;13.50;65.70;;;;;;5039118;28;19920;-79
2021/12/18 14:26:27;;;;;;;;;;;13.40;66.00;;;;;;5038843;28;19905;-79
2021/12/18 14:28:54;;;;;;;;;;;13.20;67.10;;;;;;5039463;28;19963;-78
2021/12/18 14:31:28;;;;;;;;;;;13.10;66.70;;;;;;5039571;28;19915;-79
2021/12/18 14:33:54;;;;;;;;;;;13.00;66.30;;;;;;5038626;28;19912;-79
2021/12/18 14:36:38;;;;;;;;;;;12.90;67.40;;;;;;5038852;28;19943;-79
2021/12/18 14:39:04;;;;;;;;;;;12.80;67.30;;;;;;5037753;28;19905;-79
2021/12/18 14:41:29;;;;;;;;;;;12.70;67.30;;;;;;5038894;28;20295;-79
2021/12/18 14:43:59;;;;;;;;;;;12.60;67.90;;;;;;5039175;28;19905;-78
2021/12/18 14:46:25;;;;;;;;;;;12.50;68.30;;;;;;5039307;28;20376;-78
2021/12/18 14:48:51;;;;;;;;;;;12.40;68.40;;;;;;5039327;28;19928;-78
2021/12/18 14:51:26;;;;;;;;;;;12.40;68.30;;;;;;5039152;28;19912;-77
2021/12/18 14:53:58;;;;;;;;;;;12.30;67.70;;;;;;5038870;28;20372;-78
2021/12/18 14:56:24;;;;;;;;;;;12.20;68.30;;;;;;5038664;28;20087;-78
2021/12/18 14:58:50;;;;;;;;;;;12.10;69.10;;;;;;5039170;28;19952;-78
2021/12/18 15:01:19;;;;;;;;;;;12.00;68.10;;;;;;5038883;28;20311;-79
2021/12/18 15:03:46;;;;;;;;;;;12.00;69.60;;;;;;5038296;28;19905;-77
2021/12/18 15:06:12;;;;;;;;;;;11.90;70.00;;;;;;5038759;28;19955;-78
2021/12/18 15:08:43;;;;;;;;;;;11.80;70.30;;;;;;5038351;28;19909;-78
2021/12/18 15:11:13;;;;;;;;;;;11.70;70.30;;;;;;5038666;28;19905;-78
2021/12/18 15:13:41;;;;;;;;;;;11.70;70.50;;;;;;5038649;28;19999;-78
2021/12/18 15:16:14;;;;;;;;;;;11.60;70.30;;;;;;5038869;28;19909;-78